createdAt,value
2022-10-22T00:00:49.306Z,13.50
2022-10-22T00:06:10.667Z,13.50
2022-10-22T00:11:15.903Z,13.40
2022-10-22T00:16:20.554Z,13.40
2022-10-22T00:21:24.325Z,13.40
2022-10-22T00:26:27.914Z,13.30
2022-10-22T00:31:32.634Z,13.30
2022-10-22T00:36:36.117Z,13.30
2022-10-22T00:41:39.870Z,13.30
2022-10-22T00:46:44.745Z,13.30
2022-10-22T00:51:48.033Z,13.30
2022-10-22T00:56:51.365Z,13.30
2022-10-22T01:01:56.715Z,13.30
2022-10-22T01:07:00.300Z,13.30
2022-10-22T01:12:10.788Z,13.30
2022-10-22T01:17:23.566Z,13.30
2022-10-22T01:22:33.236Z,13.20
2022-10-22T01:27:44.351Z,13.20
2022-10-22T01:32:52.257Z,13.10
2022-10-22T01:37:59.586Z,13.10
2022-10-22T01:43:04.599Z,13.10
2022-10-22T01:48:23.534Z,13.10
2022-10-22T01:53:37.705Z,13.10
2022-10-22T01:58:45.968Z,13.10
2022-10-22T02:03:57.196Z,13.10
2022-10-22T02:09:03.484Z,13.10
2022-10-22T02:14:08.569Z,13.10
2022-10-22T02:19:18.830Z,13.10
2022-10-22T02:24:23.538Z,13.10
2022-10-22T02:29:29.728Z,13.10
2022-10-22T02:34:34.672Z,13.10
2022-10-22T02:39:39.827Z,13.10
2022-10-22T02:44:44.359Z,13.10
2022-10-22T02:49:49.229Z,13.00
2022-10-22T02:54:53.550Z,13.00
2022-10-22T02:59:58.099Z,13.00
2022-10-22T03:05:03.210Z,13.00
2022-10-22T03:10:07.729Z,13.00
2022-10-22T03:15:11.610Z,13.00
2022-10-22T03:20:16.368Z,13.00
2022-10-22T03:25:23.596Z,13.00
2022-10-22T03:30:28.425Z,13.10
2022-10-22T03:35:34.489Z,13.10
2022-10-22T03:40:37.874Z,13.10
2022-10-22T03:45:41.378Z,13.20
2022-10-22T03:50:46.084Z,13.20
2022-10-22T03:55:49.598Z,13.20
2022-10-22T04:00:53.305Z,13.30
2022-10-22T04:06:02.685Z,13.30
2022-10-22T04:11:06.445Z,13.40
2022-10-22T04:16:11.589Z,13.40
2022-10-22T04:21:18.813Z,13.50
2022-10-22T04:26:22.377Z,13.50
2022-10-22T04:31:26.933Z,13.50
2022-10-22T04:42:01.671Z,13.50
2022-10-22T04:47:05.085Z,13.50
2022-10-22T04:52:08.583Z,13.50
2022-10-22T04:57:14.498Z,13.50
2022-10-22T05:02:17.907Z,13.50
2022-10-22T05:07:21.257Z,13.50
2022-10-22T05:12:26.105Z,13.50
2022-10-22T05:17:29.637Z,13.50
2022-10-22T05:22:34.279Z,13.50
2022-10-22T05:27:39.205Z,13.50
2022-10-22T05:32:42.877Z,13.50
2022-10-22T05:37:46.196Z,13.50
2022-10-22T05:42:50.913Z,13.50
2022-10-22T05:47:54.301Z,13.50
2022-10-22T05:52:57.587Z,13.60
2022-10-22T05:58:02.642Z,13.60
2022-10-22T06:03:06.319Z,13.60
2022-10-22T06:08:18.101Z,13.60
2022-10-22T06:13:24.054Z,13.70
2022-10-22T06:18:27.370Z,13.70
2022-10-22T06:23:30.670Z,13.70
2022-10-22T06:28:35.987Z,13.70
2022-10-22T06:33:42.376Z,13.70
2022-10-22T06:38:45.987Z,13.80
2022-10-22T06:43:51.231Z,13.80
2022-10-22T06:48:57.271Z,13.80
2022-10-22T06:54:01.106Z,13.90
2022-10-22T06:59:05.691Z,13.90
2022-10-22T07:04:09.857Z,14.00
2022-10-22T07:09:13.449Z,14.00
2022-10-22T07:14:18.321Z,14.00
2022-10-22T07:19:21.642Z,14.10
2022-10-22T07:24:25.202Z,14.10
2022-10-22T07:29:30.156Z,14.20
2022-10-22T07:34:33.454Z,14.20
2022-10-22T07:39:36.930Z,14.30
2022-10-22T07:44:41.982Z,14.30
2022-10-22T07:49:45.444Z,14.40
2022-10-22T07:54:49.066Z,14.40
2022-10-22T07:59:53.913Z,14.50
2022-10-22T08:04:57.585Z,14.50
2022-10-22T08:10:00.957Z,14.60
2022-10-22T08:15:06.982Z,14.70
2022-10-22T08:20:11.367Z,14.70
2022-10-22T08:25:15.491Z,14.80
2022-10-22T08:30:20.781Z,14.90
2022-10-22T08:35:24.413Z,14.90
2022-10-22T08:40:33.013Z,14.90
2022-10-22T08:45:44.217Z,15.00
2022-10-22T08:50:49.584Z,15.10
2022-10-22T08:55:55.342Z,15.20
2022-10-22T09:01:02.916Z,15.20
2022-10-22T09:06:12.087Z,15.30
2022-10-22T09:11:23.090Z,15.40
2022-10-22T09:16:36.399Z,15.40
2022-10-22T09:21:49.882Z,15.50
2022-10-22T09:26:53.239Z,15.60
2022-10-22T09:31:57.846Z,15.60
2022-10-22T09:37:02.940Z,15.70
2022-10-22T09:42:06.568Z,15.80
2022-10-22T09:47:42.766Z,15.80
2022-10-22T09:53:01.211Z,15.90
2022-10-22T09:58:05.852Z,15.90
2022-10-22T10:03:17.880Z,16.00
2022-10-22T10:08:21.898Z,16.00
2022-10-22T10:13:45.680Z,16.10
2022-10-22T10:19:02.778Z,16.10
2022-10-22T10:24:17.676Z,16.20
2022-10-22T10:35:01.803Z,16.20
2022-10-22T10:40:19.148Z,16.30
2022-10-22T10:45:32.140Z,16.30
2022-10-22T10:50:45.063Z,16.40
2022-10-22T10:55:58.663Z,16.30
2022-10-22T11:01:09.558Z,16.30
2022-10-22T11:06:18.575Z,16.40
2022-10-22T11:11:31.162Z,16.30
2022-10-22T11:16:38.637Z,16.30
2022-10-22T11:21:50.831Z,16.30
2022-10-22T11:26:59.028Z,16.40
2022-10-22T11:32:04.054Z,16.40
2022-10-22T11:37:11.851Z,16.60
2022-10-22T11:42:20.719Z,16.70
2022-10-22T11:47:26.955Z,16.80
2022-10-22T11:52:49.052Z,16.90
2022-10-22T11:57:52.289Z,17.00
2022-10-22T12:03:06.344Z,17.00
2022-10-22T12:08:27.989Z,17.10
2022-10-22T12:13:33.981Z,17.10
2022-10-22T12:18:45.409Z,17.10
2022-10-22T12:23:52.054Z,17.00
2022-10-22T12:28:59.710Z,17.10
2022-10-22T12:34:03.710Z,17.10
2022-10-22T12:39:15.304Z,17.10
2022-10-22T12:44:19.612Z,17.00
2022-10-22T12:49:26.221Z,17.00
2022-10-22T12:54:33.110Z,17.00
2022-10-22T12:59:39.792Z,17.10
2022-10-22T13:04:43.402Z,17.00
2022-10-22T13:09:49.694Z,16.90
2022-10-22T13:14:53.224Z,16.90
2022-10-22T13:20:05.867Z,16.90
2022-10-22T13:25:25.073Z,16.80
2022-10-22T13:30:31.153Z,16.80
2022-10-22T13:35:38.332Z,16.70
2022-10-22T13:40:43.033Z,16.60
2022-10-22T13:45:47.744Z,16.60
2022-10-22T13:50:52.801Z,16.50
2022-10-22T13:55:57.733Z,16.40
2022-10-22T14:01:02.963Z,16.30
2022-10-22T14:06:13.229Z,16.20
2022-10-22T14:11:18.610Z,16.30
2022-10-22T14:16:25.191Z,16.30
2022-10-22T14:21:31.165Z,16.30
2022-10-22T14:26:35.889Z,16.40
2022-10-22T14:36:44.691Z,16.40
2022-10-22T14:41:49.601Z,16.50
2022-10-22T14:46:56.250Z,16.50
2022-10-22T14:51:59.602Z,16.50
2022-10-22T14:57:04.866Z,16.50
2022-10-22T15:02:09.845Z,16.50
2022-10-22T15:07:18.231Z,16.60
2022-10-22T15:12:23.861Z,16.60
2022-10-22T15:17:28.162Z,16.60
2022-10-22T15:22:35.175Z,16.50
2022-10-22T15:27:41.580Z,16.50
2022-10-22T15:32:44.829Z,16.50
2022-10-22T15:37:51.639Z,16.50
2022-10-22T15:42:56.839Z,16.50
2022-10-22T15:48:01.341Z,16.50
2022-10-22T15:53:04.929Z,16.50
2022-10-22T15:58:09.586Z,16.50
2022-10-22T16:03:12.926Z,16.50
2022-10-22T16:08:16.819Z,16.50
2022-10-22T16:13:23.868Z,16.50
2022-10-22T16:18:27.151Z,16.50
2022-10-22T16:23:30.763Z,16.50
2022-10-22T16:28:36.566Z,16.50
2022-10-22T16:33:46.453Z,16.40
2022-10-22T16:38:52.663Z,16.40
2022-10-22T16:43:57.332Z,16.40
2022-10-22T16:49:00.705Z,16.40
2022-10-22T16:54:06.868Z,16.40
2022-10-22T16:59:14.502Z,16.50
2022-10-22T17:04:18.088Z,16.60
2022-10-22T17:09:23.215Z,16.60
2022-10-22T17:14:28.224Z,16.60
2022-10-22T17:19:31.899Z,16.70
2022-10-22T17:24:35.638Z,16.70
2022-10-22T17:29:40.540Z,16.70
2022-10-22T17:34:43.869Z,16.60
2022-10-22T17:39:47.894Z,16.70
2022-10-22T17:44:52.549Z,16.70
2022-10-22T17:49:55.902Z,16.70
2022-10-22T17:54:59.195Z,16.60
2022-10-22T18:00:03.940Z,16.50
2022-10-22T18:05:08.366Z,16.40
2022-10-22T18:10:12.397Z,16.40
2022-10-22T18:15:17.456Z,16.30
2022-10-22T18:20:20.984Z,16.20
2022-10-22T18:25:24.400Z,16.20
2022-10-22T18:30:29.339Z,16.10
2022-10-22T18:35:33.178Z,16.10
2022-10-22T18:40:37.010Z,16.10
2022-10-22T18:45:43.942Z,16.10
2022-10-22T18:50:48.100Z,16.10
2022-10-22T18:55:51.407Z,16.00
2022-10-22T19:00:56.079Z,16.00
2022-10-22T19:06:00.146Z,16.00
2022-10-22T19:11:09.583Z,16.10
2022-10-22T19:16:23.552Z,16.00
2022-10-22T19:21:26.931Z,16.00
2022-10-22T19:26:31.555Z,16.00
2022-10-22T19:31:36.289Z,16.00
2022-10-22T19:36:39.581Z,16.00
2022-10-22T19:41:43.005Z,16.00
2022-10-22T19:46:47.961Z,16.10
2022-10-22T19:51:51.628Z,16.20
2022-10-22T19:56:55.117Z,16.20
2022-10-22T20:02:00.525Z,16.30
2022-10-22T20:07:04.363Z,16.30
2022-10-22T20:12:08.374Z,16.20
2022-10-22T20:17:13.137Z,16.30
2022-10-22T20:22:18.716Z,16.20
2022-10-22T20:27:22.475Z,16.30
2022-10-22T20:32:27.988Z,16.30
2022-10-22T20:37:31.551Z,16.30
2022-10-22T20:42:35.723Z,16.20
2022-10-22T20:47:51.349Z,16.20
2022-10-22T20:53:01.558Z,16.20
2022-10-22T20:58:04.936Z,16.20
2022-10-22T21:03:09.557Z,16.10
2022-10-22T21:08:17.314Z,16.10
2022-10-22T21:13:20.678Z,16.10
2022-10-22T21:18:25.655Z,16.10
2022-10-22T21:23:29.004Z,16.00
2022-10-22T21:28:35.370Z,16.00
2022-10-22T21:33:41.006Z,16.00
2022-10-22T21:38:44.476Z,16.00
2022-10-22T21:43:48.335Z,15.90
2022-10-22T21:48:55.998Z,15.90
2022-10-22T21:53:59.397Z,15.90
2022-10-22T21:59:03.206Z,15.90
2022-10-22T22:04:08.264Z,15.90
2022-10-22T22:09:12.003Z,15.90
2022-10-22T22:14:15.533Z,15.90
2022-10-22T22:19:20.151Z,15.90
2022-10-22T22:24:23.433Z,15.90
2022-10-22T22:29:27.040Z,15.80
2022-10-22T22:34:31.825Z,15.80
2022-10-22T22:39:35.231Z,15.80
2022-10-22T22:44:40.044Z,15.70
2022-10-22T22:49:44.652Z,15.70
2022-10-22T22:54:48.690Z,15.60
2022-10-22T22:59:52.283Z,15.60
2022-10-22T23:04:57.012Z,15.50
2022-10-22T23:10:00.561Z,15.50
2022-10-22T23:15:04.385Z,15.40
2022-10-22T23:20:10.284Z,15.40
2022-10-22T23:25:13.604Z,15.30
2022-10-22T23:30:17.112Z,15.30
2022-10-22T23:35:22.220Z,15.20
2022-10-22T23:40:25.851Z,15.20
2022-10-22T23:45:29.663Z,15.10
2022-10-22T23:50:37.442Z,15.10
2022-10-22T23:55:41.088Z,15.00
